Overview Statistics Trail Chart Weather Telemetry Raw packets
 

This is the latest recevied weather packets stored in our database for station/object SV9TNF-54. If no packets are shown the sender has not sent any weather packets the latest 10 day(s).

<< 32 33 34 35 36 37 38 >>
Time Temp. Humidity Pressure Rain* Wind** Luminosity Snow
1788425049 33.33° C 28% 1011.9 hPa 0 mm 35.32 m/s, 11° - -
1788424749 33.33° C 28% 1011.9 hPa 0 mm 35.32 m/s, 11° - -
1788424449 33.33° C 28% 1011.9 hPa 0 mm 35.32 m/s, 11° - -
1788424149 33.33° C 27% 1011.9 hPa 0 mm 29.06 m/s, 58° - -
1788423849 33.33° C 27% 1011.9 hPa 0 mm 29.06 m/s, 58° - -
1788423549 33.33° C 27% 1011.9 hPa 0 mm 29.06 m/s, 58° - -
1788423248 33.33° C 27% 1011.9 hPa 0 mm 29.06 m/s, 58° - -
1788422949 33.33° C 27% 1011.9 hPa 0 mm 29.06 m/s, 58° - -
1788422649 33.33° C 27% 1011.9 hPa 0 mm 29.06 m/s, 58° - -
1788422348 33.33° C 27% 1011.9 hPa 0 mm 29.06 m/s, 58° - -
1788422048 32.78° C 29% 1011.9 hPa 0 mm 35.32 m/s, 22° - -
1788421752 32.78° C 29% 1011.9 hPa 0 mm 35.32 m/s, 22° - -
1788421448 32.78° C 28% 1012.2 hPa 0 mm 32.19 m/s, 30° - -
1788421148 32.78° C 28% 1012.2 hPa 0 mm 32.19 m/s, 30° - -
1788420848 32.78° C 28% 1012.2 hPa 0 mm 32.19 m/s, 30° - -
1788420548 32.78° C 28% 1012.2 hPa 0 mm 32.19 m/s, 30° - -
1788420247 32.78° C 28% 1012.2 hPa 0 mm 32.19 m/s, 30° - -
1788419947 32.78° C 28% 1012.2 hPa 0 mm 32.19 m/s, 30° - -
1788419647 32.78° C 30% 1012.2 hPa 0 mm 27.27 m/s, 74° - -
1788419347 32.78° C 30% 1012.2 hPa 0 mm 27.27 m/s, 74° - -
1788419047 32.78° C 30% 1012.2 hPa 0 mm 27.27 m/s, 74° - -
1788418747 32.22° C 29% 1012.2 hPa 0 mm 16.09 m/s, 357° - -
1788418447 32.22° C 29% 1012.2 hPa 0 mm 16.09 m/s, 357° - -
1788418159 32.22° C 29% 1012.2 hPa 0 mm 16.09 m/s, 357° - -
1788417847 32.22° C 29% 1012.2 hPa 0 mm 16.09 m/s, 357° - -

* Rain latest hour (hover to see other rain measurements)
** Current wind speed in m/s (hover to see current wind gust speed)